sensor_id;sensor_type;location;lat;lon;timestamp;P1;durP1;ratioP1;P2;durP2;ratioP2
27632;SDS011;15046;50.930;13.334;2023-02-28T00:00:16;9.05;;;4.50;;
27632;SDS011;15046;50.930;13.334;2023-02-28T00:02:43;8.93;;;4.72;;
27632;SDS011;15046;50.930;13.334;2023-02-28T00:05:10;10.82;;;4.43;;
27632;SDS011;15046;50.930;13.334;2023-02-28T00:07:38;8.68;;;4.07;;
27632;SDS011;15046;50.930;13.334;2023-02-28T00:10:06;7.70;;;4.30;;
27632;SDS011;15046;50.930;13.334;2023-02-28T00:12:34;10.32;;;5.13;;
27632;SDS011;15046;50.930;13.334;2023-02-28T00:15:01;10.50;;;4.20;;
27632;SDS011;15046;50.930;13.334;2023-02-28T00:17:30;10.20;;;4.70;;
27632;SDS011;15046;50.930;13.334;2023-02-28T00:19:55;9.20;;;4.30;;
27632;SDS011;15046;50.930;13.334;2023-02-28T00:22:22;9.68;;;5.40;;
27632;SDS011;15046;50.930;13.334;2023-02-28T00:24:47;8.05;;;4.05;;
27632;SDS011;15046;50.930;13.334;2023-02-28T00:27:14;8.38;;;4.63;;
27632;SDS011;15046;50.930;13.334;2023-02-28T00:29:40;7.13;;;4.22;;
27632;SDS011;15046;50.930;13.334;2023-02-28T00:32:06;6.93;;;3.72;;
27632;SDS011;15046;50.930;13.334;2023-02-28T00:34:32;6.70;;;3.63;;
27632;SDS011;15046;50.930;13.334;2023-02-28T00:37:06;7.78;;;3.80;;
27632;SDS011;15046;50.930;13.334;2023-02-28T00:39:34;8.52;;;4.30;;
27632;SDS011;15046;50.930;13.334;2023-02-28T00:42:01;8.15;;;3.80;;
27632;SDS011;15046;50.930;13.334;2023-02-28T00:44:28;8.18;;;3.45;;
27632;SDS011;15046;50.930;13.334;2023-02-28T00:46:54;8.10;;;3.67;;
27632;SDS011;15046;50.930;13.334;2023-02-28T00:49:21;6.93;;;3.90;;
27632;SDS011;15046;50.930;13.334;2023-02-28T00:51:47;7.75;;;4.10;;
27632;SDS011;15046;50.930;13.334;2023-02-28T00:54:14;8.85;;;4.20;;
27632;SDS011;15046;50.930;13.334;2023-02-28T00:56:40;8.65;;;4.50;;
27632;SDS011;15046;50.930;13.334;2023-02-28T00:59:06;7.60;;;3.80;;
27632;SDS011;15046;50.930;13.334;2023-02-28T01:01:32;7.03;;;3.72;;
27632;SDS011;15046;50.930;13.334;2023-02-28T01:03:57;7.22;;;3.75;;
27632;SDS011;15046;50.930;13.334;2023-02-28T01:06:23;8.95;;;4.25;;
27632;SDS011;15046;50.930;13.334;2023-02-28T01:08:49;8.75;;;3.95;;
27632;SDS011;15046;50.930;13.334;2023-02-28T01:11:16;9.18;;;3.80;;
27632;SDS011;15046;50.930;13.334;2023-02-28T01:13:43;8.13;;;4.55;;
27632;SDS011;15046;50.930;13.334;2023-02-28T01:16:09;8.93;;;4.55;;
27632;SDS011;15046;50.930;13.334;2023-02-28T01:18:35;10.25;;;4.85;;
27632;SDS011;15046;50.930;13.334;2023-02-28T01:21:08;9.48;;;3.88;;
27632;SDS011;15046;50.930;13.334;2023-02-28T01:23:39;10.05;;;4.90;;
27632;SDS011;15046;50.930;13.334;2023-02-28T01:26:06;10.27;;;4.95;;
27632;SDS011;15046;50.930;13.334;2023-02-28T01:28:36;7.40;;;4.07;;
27632;SDS011;15046;50.930;13.334;2023-02-28T01:31:02;9.35;;;4.05;;
27632;SDS011;15046;50.930;13.334;2023-02-28T01:33:28;8.00;;;4.28;;
27632;SDS011;15046;50.930;13.334;2023-02-28T01:36:14;9.65;;;4.20;;
27632;SDS011;15046;50.930;13.334;2023-02-28T01:38:41;8.18;;;4.25;;
27632;SDS011;15046;50.930;13.334;2023-02-28T01:41:08;7.15;;;4.25;;
27632;SDS011;15046;50.930;13.334;2023-02-28T01:46:15;8.65;;;4.25;;
27632;SDS011;15046;50.930;13.334;2023-02-28T01:48:42;8.60;;;4.43;;
27632;SDS011;15046;50.930;13.334;2023-02-28T01:51:26;11.13;;;4.78;;
27632;SDS011;15046;50.930;13.334;2023-02-28T01:53:56;12.20;;;4.88;;
27632;SDS011;15046;50.930;13.334;2023-02-28T01:56:28;8.95;;;5.00;;
27632;SDS011;15046;50.930;13.334;2023-02-28T01:58:57;9.07;;;5.35;;
27632;SDS011;15046;50.930;13.334;2023-02-28T02:01:24;9.55;;;4.75;;
27632;SDS011;15046;50.930;13.334;2023-02-28T02:03:59;10.55;;;5.15;;
27632;SDS011;15046;50.930;13.334;2023-02-28T02:06:29;9.60;;;4.63;;
27632;SDS011;15046;50.930;13.334;2023-02-28T02:09:15;8.68;;;4.55;;
27632;SDS011;15046;50.930;13.334;2023-02-28T02:11:41;11.13;;;4.95;;
27632;SDS011;15046;50.930;13.334;2023-02-28T02:25:21;13.65;;;6.00;;
27632;SDS011;15046;50.930;13.334;2023-02-28T02:36:16;9.70;;;5.20;;
27632;SDS011;15046;50.930;13.334;2023-02-28T02:39:16;9.35;;;5.50;;
27632;SDS011;15046;50.930;13.334;2023-02-28T02:41:53;13.63;;;6.90;;
27632;SDS011;15046;50.930;13.334;2023-02-28T02:44:27;9.57;;;5.70;;
27632;SDS011;15046;50.930;13.334;2023-02-28T02:47:01;13.43;;;6.43;;
27632;SDS011;15046;50.930;13.334;2023-02-28T02:49:33;11.18;;;5.53;;
27632;SDS011;15046;50.930;13.334;2023-02-28T02:52:06;11.80;;;6.93;;
27632;SDS011;15046;50.930;13.334;2023-02-28T02:54:38;12.63;;;5.50;;
27632;SDS011;15046;50.930;13.334;2023-02-28T02:57:11;9.55;;;5.25;;
27632;SDS011;15046;50.930;13.334;2023-02-28T02:59:42;11.38;;;6.20;;
27632;SDS011;15046;50.930;13.334;2023-02-28T03:02:09;11.18;;;6.00;;
27632;SDS011;15046;50.930;13.334;2023-02-28T03:04:43;9.25;;;5.72;;
27632;SDS011;15046;50.930;13.334;2023-02-28T03:07:13;9.48;;;5.45;;
27632;SDS011;15046;50.930;13.334;2023-02-28T03:09:39;10.02;;;6.00;;
27632;SDS011;15046;50.930;13.334;2023-02-28T03:12:07;15.75;;;6.82;;
27632;SDS011;15046;50.930;13.334;2023-02-28T03:14:43;12.30;;;6.43;;
27632;SDS011;15046;50.930;13.334;2023-02-28T03:25:20;12.35;;;6.78;;
27632;SDS011;15046;50.930;13.334;2023-02-28T03:30:31;10.98;;;6.38;;
27632;SDS011;15046;50.930;13.334;2023-02-28T03:35:53;15.00;;;7.05;;
27632;SDS011;15046;50.930;13.334;2023-02-28T03:41:18;12.98;;;6.60;;
27632;SDS011;15046;50.930;13.334;2023-02-28T03:43:56;13.70;;;7.63;;
27632;SDS011;15046;50.930;13.334;2023-02-28T03:46:25;12.63;;;6.70;;
27632;SDS011;15046;50.930;13.334;2023-02-28T03:48:56;14.10;;;7.25;;
27632;SDS011;15046;50.930;13.334;2023-02-28T03:51:28;15.23;;;7.35;;
27632;SDS011;15046;50.930;13.334;2023-02-28T03:54:01;14.57;;;7.03;;
27632;SDS011;15046;50.930;13.334;2023-02-28T03:56:36;12.20;;;6.55;;
27632;SDS011;15046;50.930;13.334;2023-02-28T03:59:06;14.48;;;7.07;;
27632;SDS011;15046;50.930;13.334;2023-02-28T04:01:44;12.73;;;6.82;;
27632;SDS011;15046;50.930;13.334;2023-02-28T04:04:12;12.85;;;7.10;;
27632;SDS011;15046;50.930;13.334;2023-02-28T04:06:39;13.30;;;7.22;;
27632;SDS011;15046;50.930;13.334;2023-02-28T04:09:06;13.32;;;7.38;;
27632;SDS011;15046;50.930;13.334;2023-02-28T04:11:36;15.18;;;6.88;;
27632;SDS011;15046;50.930;13.334;2023-02-28T04:14:03;13.15;;;7.32;;
27632;SDS011;15046;50.930;13.334;2023-02-28T04:16:31;14.90;;;7.25;;
27632;SDS011;15046;50.930;13.334;2023-02-28T04:18:58;15.18;;;7.85;;
27632;SDS011;15046;50.930;13.334;2023-02-28T04:21:35;13.98;;;7.50;;
27632;SDS011;15046;50.930;13.334;2023-02-28T04:24:04;13.38;;;7.28;;
27632;SDS011;15046;50.930;13.334;2023-02-28T04:26:30;16.48;;;7.18;;
27632;SDS011;15046;50.930;13.334;2023-02-28T04:29:00;12.02;;;7.07;;
27632;SDS011;15046;50.930;13.334;2023-02-28T04:31:28;16.35;;;7.78;;
27632;SDS011;15046;50.930;13.334;2023-02-28T04:33:54;14.77;;;7.07;;
27632;SDS011;15046;50.930;13.334;2023-02-28T04:36:19;14.88;;;8.38;;
27632;SDS011;15046;50.930;13.334;2023-02-28T04:38:45;13.70;;;7.13;;
27632;SDS011;15046;50.930;13.334;2023-02-28T04:41:12;14.55;;;7.68;;
27632;SDS011;15046;50.930;13.334;2023-02-28T04:43:38;16.88;;;8.27;;
27632;SDS011;15046;50.930;13.334;2023-02-28T04:46:04;12.63;;;7.00;;
27632;SDS011;15046;50.930;13.334;2023-02-28T04:48:31;15.90;;;8.45;;
27632;SDS011;15046;50.930;13.334;2023-02-28T04:51:03;16.10;;;8.30;;
27632;SDS011;15046;50.930;13.334;2023-02-28T04:53:31;18.80;;;7.63;;
27632;SDS011;15046;50.930;13.334;2023-02-28T04:55:57;18.00;;;9.35;;
27632;SDS011;15046;50.930;13.334;2023-02-28T04:58:24;14.25;;;8.25;;
27632;SDS011;15046;50.930;13.334;2023-02-28T05:00:53;19.40;;;9.15;;
27632;SDS011;15046;50.930;13.334;2023-02-28T05:03:26;19.17;;;8.98;;
27632;SDS011;15046;50.930;13.334;2023-02-28T05:05:51;17.23;;;8.88;;
27632;SDS011;15046;50.930;13.334;2023-02-28T05:08:17;21.27;;;9.57;;
27632;SDS011;15046;50.930;13.334;2023-02-28T05:10:43;17.67;;;8.93;;
27632;SDS011;15046;50.930;13.334;2023-02-28T05:13:11;15.73;;;8.98;;
27632;SDS011;15046;50.930;13.334;2023-02-28T05:15:37;18.23;;;8.38;;
27632;SDS011;15046;50.930;13.334;2023-02-28T05:18:03;15.82;;;8.60;;
27632;SDS011;15046;50.930;13.334;2023-02-28T05:20:29;15.20;;;8.13;;
27632;SDS011;15046;50.930;13.334;2023-02-28T05:22:54;17.63;;;8.38;;
27632;SDS011;15046;50.930;13.334;2023-02-28T05:25:28;17.00;;;9.18;;
27632;SDS011;15046;50.930;13.334;2023-02-28T05:27:54;20.92;;;9.38;;
27632;SDS011;15046;50.930;13.334;2023-02-28T05:30:20;16.15;;;9.38;;
27632;SDS011;15046;50.930;13.334;2023-02-28T05:32:49;18.48;;;8.77;;
27632;SDS011;15046;50.930;13.334;2023-02-28T05:35:16;14.40;;;7.97;;
27632;SDS011;15046;50.930;13.334;2023-02-28T05:37:42;20.95;;;9.43;;
27632;SDS011;15046;50.930;13.334;2023-02-28T05:40:08;27.98;;;12.70;;
27632;SDS011;15046;50.930;13.334;2023-02-28T05:42:35;22.85;;;10.85;;
27632;SDS011;15046;50.930;13.334;2023-02-28T05:45:02;15.75;;;9.00;;
27632;SDS011;15046;50.930;13.334;2023-02-28T05:47:28;18.33;;;8.88;;
27632;SDS011;15046;50.930;13.334;2023-02-28T05:49:54;18.40;;;9.13;;
27632;SDS011;15046;50.930;13.334;2023-02-28T05:52:20;20.55;;;9.27;;
27632;SDS011;15046;50.930;13.334;2023-02-28T05:54:46;20.02;;;9.23;;
27632;SDS011;15046;50.930;13.334;2023-02-28T05:57:12;15.48;;;8.95;;
27632;SDS011;15046;50.930;13.334;2023-02-28T05:59:38;18.95;;;10.18;;
27632;SDS011;15046;50.930;13.334;2023-02-28T06:02:05;16.30;;;8.80;;
27632;SDS011;15046;50.930;13.334;2023-02-28T06:04:35;20.67;;;9.77;;
27632;SDS011;15046;50.930;13.334;2023-02-28T06:07:01;16.80;;;9.23;;
27632;SDS011;15046;50.930;13.334;2023-02-28T06:09:28;24.90;;;12.95;;
27632;SDS011;15046;50.930;13.334;2023-02-28T06:11:54;19.83;;;11.85;;
27632;SDS011;15046;50.930;13.334;2023-02-28T06:14:22;23.60;;;13.43;;
27632;SDS011;15046;50.930;13.334;2023-02-28T06:16:48;23.73;;;13.43;;
27632;SDS011;15046;50.930;13.334;2023-02-28T06:19:14;28.23;;;14.73;;
27632;SDS011;15046;50.930;13.334;2023-02-28T06:21:40;24.08;;;14.38;;
27632;SDS011;15046;50.930;13.334;2023-02-28T06:24:06;26.35;;;14.18;;
27632;SDS011;15046;50.930;13.334;2023-02-28T06:26:32;26.60;;;12.48;;
27632;SDS011;15046;50.930;13.334;2023-02-28T06:28:59;22.25;;;12.13;;
27632;SDS011;15046;50.930;13.334;2023-02-28T06:31:25;20.80;;;11.55;;
27632;SDS011;15046;50.930;13.334;2023-02-28T06:33:53;25.55;;;12.68;;
27632;SDS011;15046;50.930;13.334;2023-02-28T06:36:20;22.90;;;11.80;;
27632;SDS011;15046;50.930;13.334;2023-02-28T06:38:46;24.75;;;11.82;;
27632;SDS011;15046;50.930;13.334;2023-02-28T06:41:16;22.58;;;12.38;;
27632;SDS011;15046;50.930;13.334;2023-02-28T06:43:43;21.90;;;13.45;;
27632;SDS011;15046;50.930;13.334;2023-02-28T06:46:11;22.17;;;12.75;;
27632;SDS011;15046;50.930;13.334;2023-02-28T06:51:12;19.55;;;11.05;;
27632;SDS011;15046;50.930;13.334;2023-02-28T06:53:42;23.27;;;12.35;;
27632;SDS011;15046;50.930;13.334;2023-02-28T06:56:09;25.52;;;13.05;;
27632;SDS011;15046;50.930;13.334;2023-02-28T06:58:37;23.85;;;12.30;;
27632;SDS011;15046;50.930;13.334;2023-02-28T07:01:04;23.13;;;12.98;;
27632;SDS011;15046;50.930;13.334;2023-02-28T07:03:30;24.77;;;11.52;;
27632;SDS011;15046;50.930;13.334;2023-02-28T07:05:57;19.00;;;10.73;;
27632;SDS011;15046;50.930;13.334;2023-02-28T07:08:23;24.95;;;11.57;;
27632;SDS011;15046;50.930;13.334;2023-02-28T07:10:53;39.15;;;13.68;;
27632;SDS011;15046;50.930;13.334;2023-02-28T07:13:19;21.23;;;12.15;;
27632;SDS011;15046;50.930;13.334;2023-02-28T07:15:56;20.83;;;11.77;;
27632;SDS011;15046;50.930;13.334;2023-02-28T07:18:26;31.58;;;13.77;;
27632;SDS011;15046;50.930;13.334;2023-02-28T07:20:52;26.55;;;13.82;;
27632;SDS011;15046;50.930;13.334;2023-02-28T07:23:18;22.30;;;11.90;;
27632;SDS011;15046;50.930;13.334;2023-02-28T07:25:45;24.90;;;12.27;;
27632;SDS011;15046;50.930;13.334;2023-02-28T07:28:11;25.55;;;13.07;;
27632;SDS011;15046;50.930;13.334;2023-02-28T07:30:37;22.05;;;11.90;;
27632;SDS011;15046;50.930;13.334;2023-02-28T07:33:04;24.02;;;12.10;;
27632;SDS011;15046;50.930;13.334;2023-02-28T07:35:30;21.02;;;11.25;;
27632;SDS011;15046;50.930;13.334;2023-02-28T07:37:59;23.80;;;11.48;;
27632;SDS011;15046;50.930;13.334;2023-02-28T07:40:25;17.90;;;10.63;;
27632;SDS011;15046;50.930;13.334;2023-02-28T07:42:52;19.92;;;10.25;;
27632;SDS011;15046;50.930;13.334;2023-02-28T07:45:18;16.90;;;10.63;;
27632;SDS011;15046;50.930;13.334;2023-02-28T07:47:44;24.30;;;12.15;;
27632;SDS011;15046;50.930;13.334;2023-02-28T07:50:11;20.73;;;11.55;;
27632;SDS011;15046;50.930;13.334;2023-02-28T07:52:39;24.33;;;11.98;;
27632;SDS011;15046;50.930;13.334;2023-02-28T07:55:05;21.38;;;11.48;;
27632;SDS011;15046;50.930;13.334;2023-02-28T07:57:33;20.55;;;10.90;;
27632;SDS011;15046;50.930;13.334;2023-02-28T07:59:58;25.02;;;11.55;;
27632;SDS011;15046;50.930;13.334;2023-02-28T08:02:24;22.27;;;11.43;;
27632;SDS011;15046;50.930;13.334;2023-02-28T08:04:50;19.13;;;10.25;;
27632;SDS011;15046;50.930;13.334;2023-02-28T08:07:16;18.15;;;9.60;;
27632;SDS011;15046;50.930;13.334;2023-02-28T08:09:43;17.90;;;11.05;;
27632;SDS011;15046;50.930;13.334;2023-02-28T08:12:09;19.67;;;10.90;;
27632;SDS011;15046;50.930;13.334;2023-02-28T08:14:36;26.58;;;12.90;;
27632;SDS011;15046;50.930;13.334;2023-02-28T08:17:03;19.27;;;10.65;;
27632;SDS011;15046;50.930;13.334;2023-02-28T08:19:29;19.95;;;10.15;;
27632;SDS011;15046;50.930;13.334;2023-02-28T08:21:56;20.92;;;10.43;;
27632;SDS011;15046;50.930;13.334;2023-02-28T08:24:22;21.67;;;11.18;;
27632;SDS011;15046;50.930;13.334;2023-02-28T08:26:48;19.25;;;11.25;;
27632;SDS011;15046;50.930;13.334;2023-02-28T08:29:14;16.60;;;9.32;;
27632;SDS011;15046;50.930;13.334;2023-02-28T08:31:40;18.67;;;9.73;;
27632;SDS011;15046;50.930;13.334;2023-02-28T08:34:11;19.55;;;10.32;;
27632;SDS011;15046;50.930;13.334;2023-02-28T08:36:39;19.80;;;10.38;;
27632;SDS011;15046;50.930;13.334;2023-02-28T08:39:05;22.17;;;11.05;;
27632;SDS011;15046;50.930;13.334;2023-02-28T08:41:32;19.63;;;9.35;;
27632;SDS011;15046;50.930;13.334;2023-02-28T08:43:58;17.25;;;9.40;;
27632;SDS011;15046;50.930;13.334;2023-02-28T08:46:25;18.48;;;9.10;;
27632;SDS011;15046;50.930;13.334;2023-02-28T08:48:54;19.15;;;9.93;;
27632;SDS011;15046;50.930;13.334;2023-02-28T08:51:24;19.80;;;9.57;;
27632;SDS011;15046;50.930;13.334;2023-02-28T08:53:53;16.63;;;9.15;;
27632;SDS011;15046;50.930;13.334;2023-02-28T08:56:24;17.65;;;9.32;;
27632;SDS011;15046;50.930;13.334;2023-02-28T08:58:51;18.98;;;9.55;;
27632;SDS011;15046;50.930;13.334;2023-02-28T09:01:24;17.33;;;10.10;;
27632;SDS011;15046;50.930;13.334;2023-02-28T09:03:52;18.17;;;9.00;;
27632;SDS011;15046;50.930;13.334;2023-02-28T09:06:20;17.25;;;10.20;;
27632;SDS011;15046;50.930;13.334;2023-02-28T09:08:49;17.67;;;9.57;;
27632;SDS011;15046;50.930;13.334;2023-02-28T09:11:16;15.85;;;8.57;;
27632;SDS011;15046;50.930;13.334;2023-02-28T09:13:41;15.48;;;8.95;;
27632;SDS011;15046;50.930;13.334;2023-02-28T09:16:09;23.95;;;9.27;;
27632;SDS011;15046;50.930;13.334;2023-02-28T09:18:37;17.48;;;8.77;;
27632;SDS011;15046;50.930;13.334;2023-02-28T09:21:04;18.15;;;8.70;;
27632;SDS011;15046;50.930;13.334;2023-02-28T09:23:39;15.90;;;9.55;;
27632;SDS011;15046;50.930;13.334;2023-02-28T09:26:06;17.63;;;9.25;;
27632;SDS011;15046;50.930;13.334;2023-02-28T09:28:32;15.48;;;8.55;;
27632;SDS011;15046;50.930;13.334;2023-02-28T09:30:58;15.65;;;8.82;;
27632;SDS011;15046;50.930;13.334;2023-02-28T09:33:24;17.45;;;9.18;;
27632;SDS011;15046;50.930;13.334;2023-02-28T09:35:51;19.10;;;8.05;;
27632;SDS011;15046;50.930;13.334;2023-02-28T09:38:23;12.90;;;7.80;;
27632;SDS011;15046;50.930;13.334;2023-02-28T09:40:50;14.52;;;7.50;;
27632;SDS011;15046;50.930;13.334;2023-02-28T09:43:16;17.10;;;8.93;;
27632;SDS011;15046;50.930;13.334;2023-02-28T09:45:52;17.45;;;9.05;;
27632;SDS011;15046;50.930;13.334;2023-02-28T09:48:42;14.55;;;7.93;;
27632;SDS011;15046;50.930;13.334;2023-02-28T09:51:16;13.95;;;8.13;;
27632;SDS011;15046;50.930;13.334;2023-02-28T09:54:20;14.85;;;7.63;;
27632;SDS011;15046;50.930;13.334;2023-02-28T09:56:50;13.77;;;7.47;;
27632;SDS011;15046;50.930;13.334;2023-02-28T09:59:42;15.75;;;8.23;;
27632;SDS011;15046;50.930;13.334;2023-02-28T10:05:05;13.05;;;7.38;;
27632;SDS011;15046;50.930;13.334;2023-02-28T10:10:19;12.40;;;7.07;;
27632;SDS011;15046;50.930;13.334;2023-02-28T10:16:12;15.68;;;7.60;;
27632;SDS011;15046;50.930;13.334;2023-02-28T10:18:48;11.68;;;6.38;;
27632;SDS011;15046;50.930;13.334;2023-02-28T10:21:27;13.60;;;8.00;;
27632;SDS011;15046;50.930;13.334;2023-02-28T10:24:03;12.43;;;7.03;;
27632;SDS011;15046;50.930;13.334;2023-02-28T10:26:38;11.27;;;6.43;;
27632;SDS011;15046;50.930;13.334;2023-02-28T10:29:07;12.60;;;6.60;;
27632;SDS011;15046;50.930;13.334;2023-02-28T10:31:33;11.13;;;6.30;;
27632;SDS011;15046;50.930;13.334;2023-02-28T10:34:00;11.45;;;6.70;;
27632;SDS011;15046;50.930;13.334;2023-02-28T10:36:26;10.13;;;6.13;;
27632;SDS011;15046;50.930;13.334;2023-02-28T10:38:53;14.35;;;6.88;;
27632;SDS011;15046;50.930;13.334;2023-02-28T10:41:26;15.15;;;7.72;;
27632;SDS011;15046;50.930;13.334;2023-02-28T10:44:17;11.55;;;6.18;;
27632;SDS011;15046;50.930;13.334;2023-02-28T10:46:46;11.18;;;6.63;;
27632;SDS011;15046;50.930;13.334;2023-02-28T10:49:23;9.93;;;6.25;;
27632;SDS011;15046;50.930;13.334;2023-02-28T10:51:54;13.68;;;6.45;;
27632;SDS011;15046;50.930;13.334;2023-02-28T10:54:23;11.13;;;6.75;;
27632;SDS011;15046;50.930;13.334;2023-02-28T11:02:46;12.23;;;6.55;;
27632;SDS011;15046;50.930;13.334;2023-02-28T11:05:29;10.73;;;6.22;;
27632;SDS011;15046;50.930;13.334;2023-02-28T11:10:36;12.75;;;7.65;;
27632;SDS011;15046;50.930;13.334;2023-02-28T11:13:03;14.48;;;6.90;;
27632;SDS011;15046;50.930;13.334;2023-02-28T11:15:30;12.07;;;6.75;;
27632;SDS011;15046;50.930;13.334;2023-02-28T11:18:02;10.90;;;5.93;;
27632;SDS011;15046;50.930;13.334;2023-02-28T11:20:37;14.43;;;7.28;;
27632;SDS011;15046;50.930;13.334;2023-02-28T11:23:04;12.20;;;6.93;;
27632;SDS011;15046;50.930;13.334;2023-02-28T11:25:38;13.48;;;7.10;;
27632;SDS011;15046;50.930;13.334;2023-02-28T11:28:05;12.35;;;7.45;;
27632;SDS011;15046;50.930;13.334;2023-02-28T11:30:49;14.50;;;7.35;;
27632;SDS011;15046;50.930;13.334;2023-02-28T11:33:31;13.18;;;7.38;;
27632;SDS011;15046;50.930;13.334;2023-02-28T11:36:11;10.20;;;7.00;;
27632;SDS011;15046;50.930;13.334;2023-02-28T11:38:43;15.00;;;7.38;;
27632;SDS011;15046;50.930;13.334;2023-02-28T11:51:51;12.07;;;7.60;;
27632;SDS011;15046;50.930;13.334;2023-02-28T11:54:27;13.38;;;7.70;;
27632;SDS011;15046;50.930;13.334;2023-02-28T11:59:50;13.27;;;7.60;;
27632;SDS011;15046;50.930;13.334;2023-02-28T12:05:35;10.98;;;7.15;;
27632;SDS011;15046;50.930;13.334;2023-02-28T12:10:36;14.52;;;8.25;;
27632;SDS011;15046;50.930;13.334;2023-02-28T12:16:50;15.93;;;8.30;;
27632;SDS011;15046;50.930;13.334;2023-02-28T12:26:36;11.50;;;7.63;;
27632;SDS011;15046;50.930;13.334;2023-02-28T12:29:19;12.43;;;7.80;;
27632;SDS011;15046;50.930;13.334;2023-02-28T12:31:52;13.75;;;7.28;;
27632;SDS011;15046;50.930;13.334;2023-02-28T12:34:29;11.23;;;7.30;;
27632;SDS011;15046;50.930;13.334;2023-02-28T12:37:00;13.77;;;7.82;;
27632;SDS011;15046;50.930;13.334;2023-02-28T12:39:35;12.10;;;7.63;;
27632;SDS011;15046;50.930;13.334;2023-02-28T12:42:11;11.45;;;7.57;;
27632;SDS011;15046;50.930;13.334;2023-02-28T12:44:46;11.93;;;7.82;;
27632;SDS011;15046;50.930;13.334;2023-02-28T12:47:17;14.10;;;8.65;;
27632;SDS011;15046;50.930;13.334;2023-02-28T12:52:13;16.13;;;7.60;;
27632;SDS011;15046;50.930;13.334;2023-02-28T12:54:53;13.05;;;7.93;;
27632;SDS011;15046;50.930;13.334;2023-02-28T13:08:52;12.10;;;7.85;;
27632;SDS011;15046;50.930;13.334;2023-02-28T13:11:31;12.02;;;8.13;;
27632;SDS011;15046;50.930;13.334;2023-02-28T13:14:26;11.52;;;7.18;;
27632;SDS011;15046;50.930;13.334;2023-02-28T13:22:20;12.52;;;8.00;;
27632;SDS011;15046;50.930;13.334;2023-02-28T13:27:46;11.88;;;7.97;;
27632;SDS011;15046;50.930;13.334;2023-02-28T13:33:33;10.32;;;7.47;;
27632;SDS011;15046;50.930;13.334;2023-02-28T13:38:43;13.23;;;8.18;;
27632;SDS011;15046;50.930;13.334;2023-02-28T13:46:29;14.23;;;7.70;;
27632;SDS011;15046;50.930;13.334;2023-02-28T13:48:56;12.75;;;8.18;;
27632;SDS011;15046;50.930;13.334;2023-02-28T13:51:43;10.85;;;8.02;;
27632;SDS011;15046;50.930;13.334;2023-02-28T13:56:45;15.13;;;8.88;;
27632;SDS011;15046;50.930;13.334;2023-02-28T13:59:26;15.18;;;7.60;;
27632;SDS011;15046;50.930;13.334;2023-02-28T14:05:01;12.52;;;7.85;;
27632;SDS011;15046;50.930;13.334;2023-02-28T14:07:31;10.90;;;7.95;;
27632;SDS011;15046;50.930;13.334;2023-02-28T14:10:06;12.80;;;8.25;;
27632;SDS011;15046;50.930;13.334;2023-02-28T14:15:34;13.32;;;8.50;;
27632;SDS011;15046;50.930;13.334;2023-02-28T14:20:56;14.25;;;8.60;;
27632;SDS011;15046;50.930;13.334;2023-02-28T14:29:29;14.23;;;7.97;;
27632;SDS011;15046;50.930;13.334;2023-02-28T14:37:44;13.02;;;8.95;;
27632;SDS011;15046;50.930;13.334;2023-02-28T14:40:15;11.85;;;8.77;;
27632;SDS011;15046;50.930;13.334;2023-02-28T14:42:56;15.13;;;9.95;;
27632;SDS011;15046;50.930;13.334;2023-02-28T14:45:29;14.85;;;10.15;;
27632;SDS011;15046;50.930;13.334;2023-02-28T14:47:57;13.55;;;9.55;;
27632;SDS011;15046;50.930;13.334;2023-02-28T14:50:26;16.17;;;10.52;;
27632;SDS011;15046;50.930;13.334;2023-02-28T14:52:57;15.95;;;10.20;;
27632;SDS011;15046;50.930;13.334;2023-02-28T14:55:46;12.90;;;8.90;;
27632;SDS011;15046;50.930;13.334;2023-02-28T14:58:30;13.82;;;9.43;;
27632;SDS011;15046;50.930;13.334;2023-02-28T15:00:59;15.95;;;9.55;;
27632;SDS011;15046;50.930;13.334;2023-02-28T15:05:55;17.42;;;10.63;;
27632;SDS011;15046;50.930;13.334;2023-02-28T15:08:23;14.48;;;9.35;;
27632;SDS011;15046;50.930;13.334;2023-02-28T15:10:59;15.48;;;10.00;;
27632;SDS011;15046;50.930;13.334;2023-02-28T15:13:46;18.65;;;10.07;;
27632;SDS011;15046;50.930;13.334;2023-02-28T15:16:22;16.42;;;10.13;;
27632;SDS011;15046;50.930;13.334;2023-02-28T15:21:42;13.80;;;9.48;;
27632;SDS011;15046;50.930;13.334;2023-02-28T15:24:24;14.43;;;9.63;;
27632;SDS011;15046;50.930;13.334;2023-02-28T15:27:02;16.45;;;10.07;;
27632;SDS011;15046;50.930;13.334;2023-02-28T15:29:32;17.55;;;10.38;;
27632;SDS011;15046;50.930;13.334;2023-02-28T15:32:21;17.65;;;10.13;;
27632;SDS011;15046;50.930;13.334;2023-02-28T15:34:54;16.95;;;9.77;;
27632;SDS011;15046;50.930;13.334;2023-02-28T15:37:37;15.85;;;9.82;;
27632;SDS011;15046;50.930;13.334;2023-02-28T15:45:35;16.35;;;10.90;;
27632;SDS011;15046;50.930;13.334;2023-02-28T15:48:12;19.13;;;11.18;;
27632;SDS011;15046;50.930;13.334;2023-02-28T15:53:32;19.27;;;12.45;;
27632;SDS011;15046;50.930;13.334;2023-02-28T15:56:02;25.40;;;14.23;;
27632;SDS011;15046;50.930;13.334;2023-02-28T15:58:32;42.95;;;21.63;;
27632;SDS011;15046;50.930;13.334;2023-02-28T16:01:24;31.73;;;17.30;;
27632;SDS011;15046;50.930;13.334;2023-02-28T16:03:50;22.20;;;13.25;;
27632;SDS011;15046;50.930;13.334;2023-02-28T16:08:50;28.17;;;17.30;;
27632;SDS011;15046;50.930;13.334;2023-02-28T16:11:16;21.80;;;13.55;;
27632;SDS011;15046;50.930;13.334;2023-02-28T16:13:43;21.15;;;13.50;;
27632;SDS011;15046;50.930;13.334;2023-02-28T16:16:14;20.70;;;12.65;;
27632;SDS011;15046;50.930;13.334;2023-02-28T16:18:41;22.80;;;14.20;;
27632;SDS011;15046;50.930;13.334;2023-02-28T16:21:08;25.80;;;12.75;;
27632;SDS011;15046;50.930;13.334;2023-02-28T16:23:34;22.70;;;12.65;;
27632;SDS011;15046;50.930;13.334;2023-02-28T16:25:59;21.05;;;11.45;;
27632;SDS011;15046;50.930;13.334;2023-02-28T16:28:30;17.05;;;11.18;;
27632;SDS011;15046;50.930;13.334;2023-02-28T16:31:01;18.20;;;11.55;;
27632;SDS011;15046;50.930;13.334;2023-02-28T16:33:32;19.70;;;11.73;;
27632;SDS011;15046;50.930;13.334;2023-02-28T16:35:59;18.98;;;10.93;;
27632;SDS011;15046;50.930;13.334;2023-02-28T16:38:25;22.42;;;11.40;;
27632;SDS011;15046;50.930;13.334;2023-02-28T16:40:51;22.75;;;11.98;;
27632;SDS011;15046;50.930;13.334;2023-02-28T16:43:22;20.48;;;11.88;;
27632;SDS011;15046;50.930;13.334;2023-02-28T16:45:54;19.83;;;12.18;;
27632;SDS011;15046;50.930;13.334;2023-02-28T16:48:21;22.08;;;12.32;;
27632;SDS011;15046;50.930;13.334;2023-02-28T16:50:47;19.25;;;11.02;;
27632;SDS011;15046;50.930;13.334;2023-02-28T16:53:13;20.17;;;11.93;;
27632;SDS011;15046;50.930;13.334;2023-02-28T16:55:39;19.48;;;11.20;;
27632;SDS011;15046;50.930;13.334;2023-02-28T16:58:05;21.70;;;10.90;;
27632;SDS011;15046;50.930;13.334;2023-02-28T17:00:31;18.10;;;10.73;;
27632;SDS011;15046;50.930;13.334;2023-02-28T17:02:58;20.90;;;11.45;;
27632;SDS011;15046;50.930;13.334;2023-02-28T17:05:24;18.42;;;10.73;;
27632;SDS011;15046;50.930;13.334;2023-02-28T17:07:50;19.05;;;11.70;;
27632;SDS011;15046;50.930;13.334;2023-02-28T17:10:18;18.23;;;10.63;;
27632;SDS011;15046;50.930;13.334;2023-02-28T17:12:46;19.15;;;10.18;;
27632;SDS011;15046;50.930;13.334;2023-02-28T17:15:13;18.98;;;11.05;;